createdAt,value
2018-04-11T00:01:03.351Z,66.25
2018-04-11T00:03:32.851Z,66.05
2018-04-11T00:06:02.354Z,65.70
2018-04-11T00:08:31.845Z,66.00
2018-04-11T00:11:01.343Z,66.09
2018-04-11T00:13:30.832Z,65.84
2018-04-11T00:16:00.323Z,65.57
2018-04-11T00:18:29.836Z,65.82
2018-04-11T00:20:59.326Z,65.55
2018-04-11T00:23:29.214Z,65.56
2018-04-11T00:25:58.904Z,66.17
2018-04-11T00:28:28.415Z,66.53
2018-04-11T00:30:57.963Z,66.85
2018-04-11T00:33:27.459Z,66.76
2018-04-11T00:35:57.338Z,66.82
2018-04-11T00:38:26.831Z,66.86
2018-04-11T00:40:56.327Z,66.08
2018-04-11T00:43:25.844Z,66.25
2018-04-11T00:45:55.333Z,66.50
2018-04-11T00:48:24.826Z,66.88
2018-04-11T00:50:54.320Z,67.06
2018-04-11T00:53:27.649Z,67.83
2018-04-11T00:55:57.147Z,68.06
2018-04-11T00:58:26.638Z,68.48
2018-04-11T01:00:56.124Z,67.64
2018-04-11T01:03:25.618Z,66.86
2018-04-11T01:05:55.501Z,66.51
2018-04-11T01:08:24.996Z,68.90
2018-04-11T01:10:54.504Z,70.31
2018-04-11T01:13:24.004Z,71.25
2018-04-11T01:15:53.504Z,72.21
2018-04-11T01:18:23.007Z,72.46
2018-04-11T01:20:52.498Z,72.44
2018-04-11T01:23:21.997Z,71.93
2018-04-11T01:25:51.493Z,71.16
2018-04-11T01:28:20.988Z,70.16
2018-04-11T01:30:50.899Z,69.68
2018-04-11T01:33:20.783Z,68.68
2018-04-11T01:35:50.300Z,68.84
2018-04-11T01:38:19.799Z,68.79
2018-04-11T01:40:49.292Z,68.63
2018-04-11T01:43:18.555Z,68.55
2018-04-11T01:45:48.065Z,68.46
2018-04-11T01:48:17.558Z,68.28
2018-04-11T01:50:47.798Z,67.65
2018-04-11T01:53:17.302Z,67.54
2018-04-11T01:55:46.797Z,67.09
2018-04-11T01:58:16.854Z,68.25
2018-04-11T02:00:46.353Z,69.04
2018-04-11T02:03:15.876Z,70.70
2018-04-11T02:05:45.390Z,72.04
2018-04-11T02:08:14.892Z,73.09
2018-04-11T02:10:44.170Z,73.65
2018-04-11T02:13:13.660Z,74.44
2018-04-11T02:15:43.163Z,75.85
2018-04-11T02:18:12.455Z,76.59
2018-04-11T02:20:41.941Z,77.49
2018-04-11T02:23:11.448Z,77.58
2018-04-11T02:25:40.949Z,77.83
2018-04-11T02:28:10.835Z,77.75
2018-04-11T02:30:40.327Z,78.34
2018-04-11T02:33:10.016Z,78.79
2018-04-11T02:35:39.517Z,78.62
2018-04-11T02:38:09.022Z,78.26
2018-04-11T02:40:38.520Z,77.95
2018-04-11T02:43:08.020Z,78.11
2018-04-11T02:45:37.511Z,78.30
2018-04-11T02:48:07.011Z,78.15
2018-04-11T02:50:36.905Z,78.13
2018-04-11T02:53:06.807Z,77.98
2018-04-11T02:55:36.309Z,77.66
2018-04-11T02:58:05.806Z,77.47
2018-04-11T03:00:35.288Z,76.08
2018-04-11T03:03:04.819Z,74.49
2018-04-11T03:05:34.317Z,74.37
2018-04-11T03:08:03.822Z,74.32
2018-04-11T03:10:33.516Z,74.42
2018-04-11T03:13:03.004Z,73.52
2018-04-11T03:15:32.488Z,72.58
2018-04-11T03:18:02.372Z,72.01
2018-04-11T03:20:31.863Z,72.82
2018-04-11T03:23:02.262Z,73.07
2018-04-11T03:25:31.760Z,73.11
2018-04-11T03:28:01.254Z,72.54
2018-04-11T03:30:30.753Z,72.60
2018-04-11T03:33:00.654Z,72.91
2018-04-11T03:35:30.574Z,73.18
2018-04-11T03:38:00.470Z,72.50
2018-04-11T03:40:29.984Z,72.42
2018-04-11T03:42:59.478Z,74.08
2018-04-11T03:45:28.987Z,76.25
2018-04-11T03:47:58.519Z,76.67
2018-04-11T03:50:28.397Z,76.31
2018-04-11T03:52:57.887Z,76.29
2018-04-11T03:55:27.395Z,75.75
2018-04-11T03:57:56.896Z,75.13
2018-04-11T04:00:26.431Z,74.60
2018-04-11T04:02:55.946Z,74.02
2018-04-11T04:05:25.838Z,74.36
2018-04-11T04:07:55.326Z,75.55
2018-04-11T04:10:24.822Z,76.46
2018-04-11T04:12:54.392Z,78.00
2018-04-11T04:15:41.184Z,78.72
2018-04-11T04:18:27.334Z,79.08
2018-04-11T04:20:56.832Z,79.53
2018-04-11T04:23:26.330Z,79.07
2018-04-11T04:25:55.589Z,78.50
2018-04-11T04:28:25.074Z,77.64
2018-04-11T04:30:54.645Z,77.61
2018-04-11T04:33:24.139Z,76.60
2018-04-11T04:35:53.636Z,75.94
2018-04-11T04:38:23.149Z,74.63
2018-04-11T04:40:52.669Z,74.83
2018-04-11T04:43:22.155Z,73.34
2018-04-11T04:45:51.643Z,73.51
2018-04-11T04:48:21.545Z,73.55
2018-04-11T04:50:50.483Z,73.03
2018-04-11T04:53:20.011Z,73.01
2018-04-11T04:55:49.542Z,72.62
2018-04-11T04:58:19.241Z,72.52
2018-04-11T05:00:48.735Z,72.38
2018-04-11T05:03:18.237Z,71.44
2018-04-11T05:05:47.750Z,71.47
2018-04-11T05:08:17.245Z,71.25
2018-04-11T05:10:46.754Z,71.24
2018-04-11T05:13:16.259Z,71.47
2018-04-11T05:15:45.537Z,70.43
2018-04-11T05:18:15.031Z,70.84
2018-04-11T05:20:44.516Z,70.57
2018-04-11T05:23:14.402Z,70.72
2018-04-11T05:25:43.905Z,70.29
2018-04-11T05:28:13.201Z,70.17
2018-04-11T05:30:42.855Z,70.48
2018-04-11T05:33:12.746Z,71.24
2018-04-11T05:35:42.013Z,73.00
2018-04-11T05:38:11.262Z,72.94
2018-04-11T05:40:40.916Z,72.70
2018-04-11T05:43:10.400Z,71.62
2018-04-11T05:45:39.648Z,71.08
2018-04-11T05:48:09.141Z,69.96
2018-04-11T05:50:39.438Z,69.54
2018-04-11T05:53:09.171Z,69.34
2018-04-11T05:55:39.798Z,69.26
2018-04-11T05:58:09.306Z,68.77
2018-04-11T06:00:39.058Z,63.52
2018-04-11T06:03:08.954Z,61.39
2018-04-11T06:05:38.486Z,58.01
2018-04-11T06:08:08.384Z,54.67
2018-04-11T06:10:37.882Z,51.24
2018-04-11T06:13:07.401Z,46.74
2018-04-11T06:15:37.296Z,42.71
2018-04-11T06:18:06.791Z,39.66
2018-04-11T06:20:36.320Z,36.94
2018-04-11T06:23:05.804Z,37.47
2018-04-11T06:25:35.500Z,36.56
2018-04-11T06:28:05.091Z,38.65
2018-04-11T06:30:34.733Z,38.32
2018-04-11T06:33:04.213Z,41.18
2018-04-11T06:35:33.705Z,41.42
2018-04-11T06:38:03.210Z,40.92
2018-04-11T06:40:32.711Z,38.38
2018-04-11T06:43:02.223Z,36.74
2018-04-11T06:45:31.723Z,34.67
2018-04-11T06:48:01.229Z,33.93
2018-04-11T06:50:30.735Z,34.27
2018-04-11T06:53:00.240Z,34.13
2018-04-11T06:55:29.751Z,33.93
2018-04-11T06:57:59.269Z,33.64
2018-04-11T07:00:28.765Z,37.32
2018-04-11T07:02:58.262Z,41.25
2018-04-11T07:05:27.761Z,42.01
2018-04-11T07:07:57.256Z,46.61
2018-04-11T07:10:27.141Z,48.60
2018-04-11T07:12:56.651Z,49.58
2018-04-11T07:15:26.144Z,51.37
2018-04-11T07:17:55.645Z,53.80
2018-04-11T07:20:25.105Z,54.37
2018-04-11T07:22:54.637Z,53.78
2018-04-11T07:25:24.135Z,51.71
2018-04-11T07:27:53.629Z,50.79
2018-04-11T07:30:23.121Z,51.78
2018-04-11T07:32:52.621Z,52.54
2018-04-11T07:35:22.529Z,50.46
2018-04-11T07:37:52.421Z,51.31
2018-04-11T07:40:21.992Z,53.40
2018-04-11T07:42:52.035Z,55.84
2018-04-11T07:45:21.539Z,53.59
2018-04-11T07:47:51.067Z,52.90
2018-04-11T07:50:20.559Z,52.64
2018-04-11T07:52:50.799Z,50.48
2018-04-11T07:55:20.704Z,49.82
2018-04-11T07:57:50.213Z,51.96
2018-04-11T08:00:19.898Z,51.77
2018-04-11T08:02:49.450Z,53.97
2018-04-11T08:05:18.737Z,54.80
2018-04-11T08:07:48.279Z,54.35
2018-04-11T08:10:17.787Z,52.15
2018-04-11T08:12:47.272Z,50.60
2018-04-11T08:15:16.782Z,52.56
2018-04-11T08:17:46.279Z,50.38
2018-04-11T08:20:15.935Z,51.45
2018-04-11T08:22:45.462Z,52.53
2018-04-11T08:25:14.963Z,51.53
2018-04-11T08:27:44.427Z,51.51
2018-04-11T08:30:13.909Z,51.01
2018-04-11T08:32:43.189Z,52.49
2018-04-11T08:35:12.683Z,52.34
2018-04-11T08:37:42.187Z,52.61
2018-04-11T08:40:11.679Z,54.95
2018-04-11T08:42:41.180Z,55.19
2018-04-11T08:45:10.672Z,56.81
2018-04-11T08:47:40.175Z,57.03
2018-04-11T08:50:09.679Z,57.40
2018-04-11T08:52:39.184Z,58.20
2018-04-11T08:55:08.677Z,57.69
2018-04-11T08:57:38.171Z,60.57
2018-04-11T09:00:07.662Z,58.37
2018-04-11T09:02:37.545Z,58.24
2018-04-11T09:05:07.063Z,58.84
2018-04-11T09:07:36.321Z,57.77
2018-04-11T09:10:05.819Z,57.92
2018-04-11T09:12:35.329Z,58.33
2018-04-11T09:15:04.832Z,57.13
2018-04-11T09:17:34.334Z,57.20
2018-04-11T09:20:03.825Z,54.56
2018-04-11T09:22:33.358Z,56.05
2018-04-11T09:25:02.864Z,55.31
2018-04-11T09:27:32.405Z,53.53
2018-04-11T09:30:01.928Z,53.92
2018-04-11T09:32:31.813Z,52.36
2018-04-11T09:35:01.065Z,52.51
2018-04-11T09:37:30.569Z,53.13
2018-04-11T09:40:00.057Z,51.89
2018-04-11T09:42:29.962Z,52.98
2018-04-11T09:44:59.459Z,50.87
2018-04-11T09:47:28.949Z,50.33
2018-04-11T09:49:58.452Z,49.42
2018-04-11T09:52:27.944Z,50.11
2018-04-11T09:54:57.441Z,48.07
2018-04-11T09:57:26.938Z,47.15
2018-04-11T09:59:56.422Z,47.11
2018-04-11T10:02:25.686Z,44.70
2018-04-11T10:05:04.298Z,47.16
2018-04-11T10:07:33.815Z,45.94
2018-04-11T10:10:03.329Z,45.46
2018-04-11T10:12:32.822Z,45.63
2018-04-11T10:15:02.332Z,45.04
2018-04-11T10:17:31.833Z,46.17
2018-04-11T10:20:01.328Z,46.43
2018-04-11T10:22:30.613Z,44.12
2018-04-11T10:24:59.888Z,43.35
2018-04-11T10:27:29.377Z,43.31
2018-04-11T10:29:59.300Z,44.30
2018-04-11T10:32:29.378Z,43.12
2018-04-11T10:34:58.870Z,42.65
2018-04-11T10:37:28.363Z,41.85
2018-04-11T10:39:57.865Z,40.86
2018-04-11T10:42:27.366Z,39.90
2018-04-11T10:44:56.868Z,40.83
2018-04-11T10:47:26.352Z,41.12
2018-04-11T10:49:55.856Z,40.23
2018-04-11T10:52:25.348Z,38.81
2018-04-11T10:54:55.266Z,41.97
2018-04-11T10:57:25.158Z,39.19
2018-04-11T10:59:54.668Z,42.65
2018-04-11T11:02:24.165Z,38.52
2018-04-11T11:04:53.442Z,37.29
2018-04-11T11:07:22.943Z,37.80
2018-04-11T11:09:52.226Z,37.23
2018-04-11T11:12:21.718Z,36.50
2018-04-11T11:14:51.216Z,35.62
2018-04-11T11:17:21.100Z,36.65
2018-04-11T11:20:02.307Z,36.45
2018-04-11T11:22:31.842Z,34.96
2018-04-11T11:25:00.780Z,36.50
2018-04-11T11:27:30.272Z,38.52
2018-04-11T11:29:59.772Z,37.53
2018-04-11T11:32:29.277Z,34.32
2018-04-11T11:34:58.546Z,34.35
2018-04-11T11:37:27.809Z,34.56
2018-04-11T11:39:57.487Z,34.42
2018-04-11T11:42:27.061Z,35.08
2018-04-11T11:44:56.556Z,36.76
2018-04-11T11:47:26.046Z,33.04
2018-04-11T11:49:55.376Z,34.66
2018-04-11T11:52:24.875Z,35.90
2018-04-11T11:54:54.380Z,34.79
2018-04-11T11:57:23.945Z,34.03
2018-04-11T11:59:53.588Z,35.68
2018-04-11T12:02:23.107Z,34.00
2018-04-11T12:04:52.623Z,35.95
2018-04-11T12:07:22.284Z,35.18
2018-04-11T12:09:51.775Z,34.87
2018-04-11T12:12:21.284Z,33.83
2018-04-11T12:14:50.777Z,34.46
2018-04-11T12:17:20.309Z,34.60
2018-04-11T12:19:50.210Z,33.77
2018-04-11T12:22:19.729Z,33.91
2018-04-11T12:24:49.420Z,33.49
2018-04-11T12:27:19.112Z,34.38
2018-04-11T12:29:48.647Z,34.44
2018-04-11T12:32:18.134Z,32.29
2018-04-11T12:34:47.622Z,32.35
2018-04-11T12:37:17.140Z,32.51
2018-04-11T12:39:46.825Z,33.36
2018-04-11T12:42:16.530Z,32.24
2018-04-11T12:44:46.040Z,31.73
2018-04-11T12:47:15.530Z,32.13
2018-04-11T12:49:45.059Z,31.48
2018-04-11T12:52:14.562Z,31.75
2018-04-11T12:54:43.817Z,32.68
2018-04-11T12:57:13.528Z,31.99
2018-04-11T12:59:43.415Z,30.90
2018-04-11T13:02:12.918Z,30.81
2018-04-11T13:04:42.407Z,30.39
2018-04-11T13:07:11.905Z,32.63
2018-04-11T13:09:41.402Z,30.82
2018-04-11T13:12:10.674Z,30.25
2018-04-11T13:14:40.564Z,29.69
2018-04-11T13:17:10.076Z,31.63
2018-04-11T13:19:39.256Z,32.29
2018-04-11T13:22:08.747Z,29.21
2018-04-11T13:24:38.240Z,30.15
2018-04-11T13:27:07.738Z,32.05
2018-04-11T13:29:37.248Z,30.35
2018-04-11T13:32:06.752Z,30.15
2018-04-11T13:34:36.301Z,30.39
2018-04-11T13:37:05.742Z,31.00
2018-04-11T13:39:35.434Z,30.32
2018-04-11T13:42:05.334Z,29.96
2018-04-11T13:44:34.597Z,30.52
2018-04-11T13:47:03.890Z,30.71
2018-04-11T13:49:33.612Z,31.14
2018-04-11T13:52:03.658Z,31.73
2018-04-11T13:54:33.185Z,31.21
2018-04-11T13:57:03.089Z,30.49
2018-04-11T13:59:32.591Z,30.25
2018-04-11T14:02:02.503Z,31.12
2018-04-11T14:04:31.764Z,28.80
2018-04-11T14:07:01.269Z,30.64
2018-04-11T14:09:30.740Z,30.56
2018-04-11T14:12:00.022Z,30.56
2018-04-11T14:14:29.977Z,28.83
2018-04-11T14:16:59.410Z,29.27
2018-04-11T14:19:28.687Z,29.62
2018-04-11T14:21:58.199Z,29.49
2018-04-11T14:24:27.468Z,30.21
2018-04-11T14:26:56.970Z,31.24
2018-04-11T14:29:26.650Z,29.86
2018-04-11T14:31:56.155Z,28.48
2018-04-11T14:34:25.657Z,27.69
2018-04-11T14:36:55.166Z,28.14
2018-04-11T14:39:24.658Z,27.60
2018-04-11T14:41:54.156Z,28.54
2018-04-11T14:44:23.437Z,28.32
2018-04-11T14:46:52.898Z,29.53
2018-04-11T14:49:22.808Z,28.71
2018-04-11T14:51:52.726Z,26.83
2018-04-11T14:54:22.627Z,30.29
2018-04-11T14:56:52.159Z,27.88
2018-04-11T14:59:22.049Z,27.94
2018-04-11T15:01:51.540Z,28.16
2018-04-11T15:04:21.047Z,29.22
2018-04-11T15:06:50.564Z,28.06
2018-04-11T15:09:20.250Z,27.37
2018-04-11T15:11:49.605Z,28.40
2018-04-11T15:14:19.500Z,30.86
2018-04-11T15:16:49.024Z,30.14
2018-04-11T15:19:18.534Z,29.17
2018-04-11T15:21:48.024Z,29.38
2018-04-11T15:24:17.941Z,30.46
2018-04-11T15:26:47.852Z,28.37
2018-04-11T15:29:17.783Z,29.89
2018-04-11T15:31:47.677Z,30.72
2018-04-11T15:34:17.228Z,28.51
2018-04-11T15:36:46.869Z,28.49
2018-04-11T15:39:16.366Z,30.06
2018-04-11T15:41:45.637Z,29.76
2018-04-11T15:44:15.135Z,29.06
2018-04-11T15:46:44.302Z,27.70
2018-04-11T15:49:14.195Z,29.45
2018-04-11T15:51:43.891Z,29.66
2018-04-11T15:54:13.383Z,29.82
2018-04-11T15:56:42.885Z,29.24
2018-04-11T15:59:12.383Z,28.82
2018-04-11T16:01:41.873Z,30.13
2018-04-11T16:04:11.421Z,28.86
2018-04-11T16:06:40.682Z,29.77
2018-04-11T16:09:10.200Z,28.88
2018-04-11T16:11:39.701Z,28.80
2018-04-11T16:14:09.197Z,29.20
2018-04-11T16:16:38.693Z,30.71
2018-04-11T16:19:08.665Z,30.96
2018-04-11T16:21:38.695Z,29.88
2018-04-11T16:24:08.236Z,29.23
2018-04-11T16:26:38.175Z,29.46
2018-04-11T16:29:07.683Z,28.47
2018-04-11T16:31:37.198Z,30.91
2018-04-11T16:34:06.695Z,30.68
2018-04-11T16:36:36.180Z,32.21
2018-04-11T16:39:04.773Z,31.20
2018-04-11T16:41:34.029Z,31.29
2018-04-11T16:44:03.539Z,28.88
2018-04-11T16:46:33.035Z,29.69
2018-04-11T16:49:02.532Z,27.29
2018-04-11T16:51:31.737Z,27.54
2018-04-11T16:54:01.015Z,28.06
2018-04-11T16:56:30.522Z,27.86
2018-04-11T16:59:00.019Z,28.06
2018-04-11T17:01:29.531Z,27.65
2018-04-11T17:03:58.828Z,27.36
2018-04-11T17:06:28.327Z,27.90
2018-04-11T17:08:57.825Z,27.37
2018-04-11T17:11:27.096Z,27.62
2018-04-11T17:13:56.382Z,28.65
2018-04-11T17:16:25.638Z,28.72
2018-04-11T17:18:54.897Z,28.75
2018-04-11T17:21:41.255Z,28.75
2018-04-11T17:24:27.655Z,29.35
2018-04-11T17:27:14.172Z,29.60
2018-04-11T17:30:00.543Z,29.50
2018-04-11T17:32:30.023Z,30.11
2018-04-11T17:34:59.511Z,30.70
2018-04-11T17:37:29.418Z,29.92
2018-04-11T17:39:59.350Z,30.35
2018-04-11T17:42:29.236Z,29.99
2018-04-11T17:44:58.517Z,30.42
2018-04-11T17:47:28.013Z,30.47
2018-04-11T17:49:57.285Z,29.64
2018-04-11T17:52:26.772Z,29.99
2018-04-11T17:54:56.679Z,30.38
2018-04-11T17:57:26.589Z,31.68
2018-04-11T17:59:56.283Z,32.54
2018-04-11T18:02:25.791Z,35.32
2018-04-11T18:04:55.291Z,34.51
2018-04-11T18:07:24.827Z,34.09
2018-04-11T18:09:54.931Z,34.80
2018-04-11T18:12:24.426Z,35.40
2018-04-11T18:14:53.967Z,35.50
2018-04-11T18:17:23.471Z,35.43
2018-04-11T18:19:52.974Z,34.95
2018-04-11T18:22:22.491Z,35.42
2018-04-11T18:24:52.004Z,35.83
2018-04-11T18:27:21.525Z,35.80
2018-04-11T18:29:51.135Z,36.40
2018-04-11T18:32:20.785Z,37.28
2018-04-11T18:34:50.297Z,38.09
2018-04-11T18:37:20.197Z,38.45
2018-04-11T18:39:50.797Z,38.18
2018-04-11T18:42:20.111Z,38.70
2018-04-11T18:44:49.613Z,38.94
2018-04-11T18:47:19.150Z,38.70
2018-04-11T18:49:48.519Z,39.38
2018-04-11T18:52:18.013Z,39.55
2018-04-11T18:54:47.570Z,39.76
2018-04-11T18:57:17.073Z,40.41
2018-04-11T18:59:46.573Z,40.82
2018-04-11T19:02:16.089Z,40.60
2018-04-11T19:04:45.981Z,40.90
2018-04-11T19:07:15.473Z,41.01
2018-04-11T19:09:44.969Z,42.12
2018-04-11T19:12:14.483Z,43.94
2018-04-11T19:14:43.981Z,44.42
2018-04-11T19:17:13.475Z,45.47
2018-04-11T19:19:42.990Z,45.93
2018-04-11T19:22:12.496Z,46.60
2018-04-11T19:24:41.996Z,46.90
2018-04-11T19:27:11.279Z,47.09
2018-04-11T19:29:40.794Z,47.31
2018-04-11T19:32:10.296Z,47.20
2018-04-11T19:34:39.805Z,47.16
2018-04-11T19:37:09.304Z,47.31
2018-04-11T19:39:38.813Z,47.47
2018-04-11T19:42:09.255Z,47.57
2018-04-11T19:44:38.518Z,47.95
2018-04-11T19:47:08.260Z,48.32
2018-04-11T19:49:37.550Z,48.18
2018-04-11T19:52:06.816Z,48.38
2018-04-11T19:54:36.089Z,48.16
2018-04-11T19:57:05.590Z,48.70
2018-04-11T19:59:35.071Z,48.48
2018-04-11T20:02:04.596Z,48.67
2018-04-11T20:04:34.037Z,49.10
2018-04-11T20:07:03.479Z,49.60
2018-04-11T20:09:33.534Z,49.80
2018-04-11T20:12:02.786Z,50.18
2018-04-11T20:14:32.060Z,50.30
2018-04-11T20:17:01.314Z,51.42
2018-04-11T20:19:30.578Z,51.81
2018-04-11T20:22:00.465Z,52.54
2018-04-11T20:24:29.735Z,53.17
2018-04-11T20:26:59.249Z,53.70
2018-04-11T20:29:28.749Z,53.83
2018-04-11T20:31:58.245Z,54.43
2018-04-11T20:34:27.735Z,54.38
2018-04-11T20:36:57.240Z,54.78
2018-04-11T20:39:26.733Z,54.59
2018-04-11T20:41:56.263Z,54.46
2018-04-11T20:44:25.526Z,54.43
2018-04-11T20:46:55.411Z,54.52
2018-04-11T20:49:25.206Z,54.83
2018-04-11T20:51:54.891Z,54.91
2018-04-11T20:54:24.397Z,55.32
2018-04-11T20:56:53.912Z,55.40
2018-04-11T20:59:23.406Z,55.61
2018-04-11T21:01:52.566Z,55.71
2018-04-11T21:04:22.498Z,56.17
2018-04-11T21:06:52.411Z,56.25
2018-04-11T21:09:22.310Z,56.33
2018-04-11T21:11:52.016Z,56.37
2018-04-11T21:14:21.517Z,56.29
2018-04-11T21:16:51.033Z,56.60
2018-04-11T21:19:20.728Z,56.33
2018-04-11T21:21:50.249Z,56.22
2018-04-11T21:24:20.172Z,55.78
2018-04-11T21:26:50.064Z,55.65
2018-04-11T21:29:19.568Z,55.71
2018-04-11T21:31:49.088Z,56.53
2018-04-11T21:34:18.598Z,57.07
2018-04-11T21:36:48.489Z,56.49
2018-04-11T21:39:17.998Z,55.83
2018-04-11T21:41:47.498Z,55.08
2018-04-11T21:44:17.001Z,54.71
2018-04-11T21:46:46.507Z,54.15
2018-04-11T21:49:16.247Z,54.04
2018-04-11T21:51:45.953Z,53.84
2018-04-11T21:54:15.604Z,53.66
2018-04-11T21:56:45.689Z,53.70
2018-04-11T21:59:15.600Z,53.42
2018-04-11T22:01:45.550Z,52.93
2018-04-11T22:04:15.060Z,53.33
2018-04-11T22:06:44.573Z,54.92
2018-04-11T22:09:14.102Z,54.77
2018-04-11T22:11:43.652Z,55.21
2018-04-11T22:14:13.566Z,55.82
2018-04-11T22:16:43.448Z,56.02
2018-04-11T22:19:12.948Z,55.57
2018-04-11T22:21:42.486Z,56.35
2018-04-11T22:24:12.388Z,56.50
2018-04-11T22:26:41.660Z,56.24
2018-04-11T22:29:11.172Z,55.95
2018-04-11T22:31:40.678Z,55.65
2018-04-11T22:34:10.190Z,55.97
2018-04-11T22:36:39.696Z,56.41
2018-04-11T22:39:09.189Z,56.58
2018-04-11T22:41:39.106Z,56.47
2018-04-11T22:44:08.605Z,56.68
2018-04-11T22:46:38.113Z,56.70
2018-04-11T22:49:07.618Z,57.69
2018-04-11T22:51:37.115Z,58.06
2018-04-11T22:54:06.636Z,58.71
2018-04-11T22:56:35.907Z,58.75
2018-04-11T22:59:05.415Z,59.01
2018-04-11T23:01:34.937Z,59.12
2018-04-11T23:04:04.640Z,58.53
2018-04-11T23:06:34.134Z,58.87
2018-04-11T23:09:03.414Z,58.94
2018-04-11T23:11:32.863Z,58.28
2018-04-11T23:14:02.163Z,57.00
2018-04-11T23:16:31.664Z,55.75
2018-04-11T23:19:01.165Z,55.66
2018-04-11T23:21:30.704Z,55.90
2018-04-11T23:23:59.973Z,55.49
2018-04-11T23:26:29.468Z,55.80
2018-04-11T23:28:58.970Z,55.66
2018-04-11T23:31:28.474Z,56.16
2018-04-11T23:33:57.977Z,56.44
2018-04-11T23:36:27.499Z,56.97
2018-04-11T23:38:56.997Z,57.37
2018-04-11T23:41:26.256Z,57.46
2018-04-11T23:43:56.162Z,57.84
2018-04-11T23:46:25.666Z,58.98
2018-04-11T23:48:55.177Z,59.50
2018-04-11T23:51:25.092Z,58.92
2018-04-11T23:53:54.978Z,59.28
2018-04-11T23:56:24.474Z,59.31
2018-04-11T23:58:53.985Z,59.31
